Productos aeronáuticos

  • SIGMET
  • METAR / SPECI
  • TAF
  • AIREP
  • Aviso de aeródromo
  • Pronárea
  • Carta superficie

Mensajes METAR de la última hora

SULS 250400Z 02005KT 1500 BR OVC003 17/17 Q1012
SUMU 250400Z 15003KT 1500 BR OVC002 16/16 Q1012 TEMPO FG

Mensajes METAR de la última hora - Internacionales


Argentina
SAAR 250430Z 16005KT 3000 DZ BR BKN001 OVC003 17/17 Q1010
SAAR 250400Z 16003KT 3000 DZ BR SCT003 BKN006 OVC008 17/17 Q1011
SABE 250400Z 15008KT 9000 FEW010 OVC020 16/15 Q1011
SACO 250400Z 16002KT 9999 BKN020 SCT100 12/10 Q1014
SAEZ 250400Z 12002KT 8000 SCT017 BKN031 16/16 Q1011
SAME 250400Z 00000KT 8000 FEW040 07/05 Q1014
Bolivia
SLLP 250400Z 08005KT 2500 BR FEW002 SCT013 BKN200 04/04 Q1039
Brasil
SBBR 250400Z 00000KT CAVOK 16/15 Q1023
SBFI 250400Z 11004KT CAVOK 22/21 Q1014
SBFL 250400Z 35007KT 9999 FEW030 20/18 Q1018
SBGR 250400Z 00000KT 5000 BR NSC 16/16 Q1023
SBPA 250400Z 09002KT CAVOK 21/18 Q1014
SBRJ 250400Z 33004KT CAVOK 21/20 Q1019
SBSP 250400Z AUTO VRB02KT 5000 BR NCD 17/15 Q1022
SBSP 250353Z AUTO VRB02KT 5000 BR NCD 17/15 Q1023
Colombia
SKBO 250400Z 06008KT 9999 FEW015 SCT070 BKN200 12/029 A3037
Chile
SCCI 250400Z 25018KT 6000 SHRASN OVC020 02/01 Q0994 NOSIG
SCEL 250400Z 03004KT 350V080 8000 -SHRA OVC060 09/08 Q1016 NOSIG
Ecuador
SEQM 250400Z 17001KT 9999 SCT030 13/11 Q1026 NOSIG RMK A3030
EEUU
KDCA 250438Z 07009KT 8SM -RA OVC010 15/14 A2967 RMK AO2 P0002 T01500139
KDCA 250405Z 07008KT 6SM -RA BR BKN013 BKN021 OVC100 15/14 A2969 RMK AO2 P0001 T01500144
KDCA 250403Z 07007KT 6SM -RA BR SCT013 BKN021 OVC100 15/14 A2968 RMK AO2 P0001 T01500144
KDCA 250401Z 08008KT 10SM -RA BKN016 BKN041 OVC100 15/14 A2968 RMK AO2 P0001 T01500144
KMIA 250353Z 18009KT 10SM -RA FEW065 SCT085 BKN120 OVC220 23/21 A2986 RMK AO2 SLP112 P0001 T02330211
KDCA 250352Z 06009KT 5SM -RA BR SCT015 BKN039 OVC095 15/14 A2968 RMK AO2 SLP051 P0017 T01500144
KIAD 250352Z 10009KT 4SM RA BR BKN008 OVC075 14/13 A2966 RMK AO2 SLP043 P0015 T01440128
KJFK 250351Z 09011KT 10SM FEW015 OVC240 14/12 A2983 RMK AO2 SLP102 T01440122
KLGA 250351Z 08008KT 10SM FEW011 OVC250 16/11 A2982 RMK AO2 SLP096 T01560106
España
LEBL 250430Z 30006KT 9999 FEW020 19/11 Q1015 NOSIG
LEMD 250430Z 34003KT CAVOK 16/08 Q1018 NOSIG
LEBL 250400Z 30008KT 9999 FEW020 19/11 Q1015 NOSIG
LEMD 250400Z 34003KT CAVOK 16/08 Q1018 NOSIG
Francia
LFPO 250430Z 04005KT 010V070 CAVOK 15/11 Q1023 NOSIG
LFPO 250400Z 05006KT CAVOK 15/11 Q1022 NOSIG
Inglaterra
EGLL 250420Z AUTO 08001KT 9999 NCD 14/13 Q1024 NOSIG
EGLL 250350Z AUTO 05001KT 9999 NCD 14/13 Q1024 NOSIG
Panamá
MPTO 250400Z 25005KT 9999 SCT018CB SCT100 28/26 Q1010 NOSIG
Paraguay
SGAS 250400Z 05010KT CAVOK 25/23 Q1011
Venezuela
SVMI 250400Z 00000KT 9999 SCT016 28/22 Q1012

* Datos extraidos del Text DataServer de la NOAA (NOAA TEXT DATA SERVER)

Instituto Uruguayo de Meteorología

Dr. Javier Barrios Amorín 1488 - CP 11200
Mesa Central (598) 1895

Montevideo - Uruguay